createdAt,value
2017-12-31T10:57:37.352Z,97181
2017-12-31T11:00:04.030Z,97176
2017-12-31T11:02:30.932Z,97174
2017-12-31T11:04:58.540Z,97171
2017-12-31T11:07:25.186Z,97172
2017-12-31T11:09:51.853Z,97172
2017-12-31T11:12:18.532Z,97174
2017-12-31T11:14:45.230Z,97178
2017-12-31T11:17:11.899Z,97177
2017-12-31T11:19:38.572Z,97171
2017-12-31T11:22:06.307Z,97174
2017-12-31T11:24:32.967Z,97178
2017-12-31T11:26:59.785Z,97175
2017-12-31T11:29:27.453Z,97170
2017-12-31T11:31:54.255Z,97168
2017-12-31T11:34:21.073Z,97170
2017-12-31T11:36:47.894Z,97164
2017-12-31T11:39:14.612Z,97165
2017-12-31T11:41:41.343Z,97164
2017-12-31T11:44:08.195Z,97162
2017-12-31T11:46:34.906Z,97155
2017-12-31T11:49:01.635Z,97160
2017-12-31T11:51:28.541Z,97144
2017-12-31T11:53:57.017Z,97151
2017-12-31T11:56:23.753Z,97146
2017-12-31T11:58:51.209Z,97157
2017-12-31T12:01:18.646Z,97158
2017-12-31T12:03:45.344Z,97152
2017-12-31T12:06:12.112Z,97137
2017-12-31T12:08:38.758Z,97145
2017-12-31T12:11:05.485Z,97155
2017-12-31T12:13:32.146Z,97147
2017-12-31T12:15:58.882Z,97136
2017-12-31T12:18:25.734Z,97145
2017-12-31T12:20:52.416Z,97150
2017-12-31T12:23:19.855Z,97148
2017-12-31T12:25:46.564Z,97149
2017-12-31T12:28:13.241Z,97146
2017-12-31T12:30:39.943Z,97147
2017-12-31T12:33:06.665Z,97142
2017-12-31T12:35:34.128Z,97135
2017-12-31T12:38:00.797Z,97133
2017-12-31T12:40:27.458Z,97138
2017-12-31T12:42:54.134Z,97134
2017-12-31T12:45:21.541Z,97137
2017-12-31T12:47:48.251Z,97141
2017-12-31T12:50:15.663Z,97144
2017-12-31T12:52:42.326Z,97148
2017-12-31T12:55:09.028Z,97141
2017-12-31T12:57:35.714Z,97134
2017-12-31T13:00:02.402Z,97127
2017-12-31T13:02:29.084Z,97133
2017-12-31T13:04:55.741Z,97135
2017-12-31T13:07:22.543Z,97131
2017-12-31T13:09:49.199Z,97129
2017-12-31T13:12:15.857Z,97124
2017-12-31T13:14:42.504Z,97114
2017-12-31T13:17:10.948Z,97116
2017-12-31T13:19:37.715Z,97130
2017-12-31T13:22:04.398Z,97122
2017-12-31T13:24:31.801Z,97125
2017-12-31T13:26:58.452Z,97121
2017-12-31T13:29:25.119Z,97119
2017-12-31T13:31:51.811Z,97115
2017-12-31T13:34:18.490Z,97121
2017-12-31T13:36:45.142Z,97115
2017-12-31T13:39:11.835Z,97115
2017-12-31T13:41:38.632Z,97115
2017-12-31T13:44:05.323Z,97113
2017-12-31T13:46:32.037Z,97112
2017-12-31T13:49:00.325Z,97116
2017-12-31T13:51:27.717Z,97111
2017-12-31T13:53:54.510Z,97108
2017-12-31T13:56:21.190Z,97112
2017-12-31T13:58:47.861Z,97105
2017-12-31T14:01:14.567Z,97105
2017-12-31T14:03:42.026Z,97107
2017-12-31T14:06:09.457Z,97107
2017-12-31T14:08:36.180Z,97105
2017-12-31T14:11:02.934Z,97100
2017-12-31T14:13:29.642Z,97102
2017-12-31T14:15:56.312Z,97102
2017-12-31T14:18:23.016Z,97100
2017-12-31T14:20:49.738Z,97092
2017-12-31T14:23:17.156Z,97089
2017-12-31T14:25:43.813Z,97107
2017-12-31T14:28:10.505Z,97102
2017-12-31T14:30:37.169Z,97098
2017-12-31T14:33:03.813Z,97098
2017-12-31T14:35:30.492Z,97105
2017-12-31T14:37:58.049Z,97098
2017-12-31T14:40:24.711Z,97098
2017-12-31T14:42:51.407Z,97096
2017-12-31T14:45:18.148Z,97092
2017-12-31T14:47:45.604Z,97098
2017-12-31T14:50:12.284Z,97090
2017-12-31T14:52:38.956Z,97092
2017-12-31T14:55:06.365Z,97095
2017-12-31T14:57:33.053Z,97093
2017-12-31T15:00:00.493Z,97092
2017-12-31T15:02:27.162Z,97084
2017-12-31T15:04:53.943Z,97081
2017-12-31T15:07:20.597Z,97083
2017-12-31T15:09:47.274Z,97080
2017-12-31T15:12:13.980Z,97088
2017-12-31T15:14:40.719Z,97093
2017-12-31T15:17:07.369Z,97094
2017-12-31T15:19:34.079Z,97088
2017-12-31T15:22:01.506Z,97080
2017-12-31T15:24:29.653Z,97082
2017-12-31T15:26:56.333Z,97077
2017-12-31T15:29:23.124Z,97081
2017-12-31T15:31:49.794Z,97082
2017-12-31T15:34:16.467Z,97078
2017-12-31T15:36:43.175Z,97080
2017-12-31T15:39:09.830Z,97072
2017-12-31T15:41:36.465Z,97063
2017-12-31T15:44:03.164Z,97073
2017-12-31T15:46:29.834Z,97074
2017-12-31T15:48:56.565Z,97070
2017-12-31T15:51:23.973Z,97074
2017-12-31T15:53:50.656Z,97068
2017-12-31T15:56:17.546Z,97063
2017-12-31T15:58:45.161Z,97059
2017-12-31T16:01:12.553Z,97049
2017-12-31T16:03:39.229Z,97051
2017-12-31T16:06:05.949Z,97049
2017-12-31T16:08:32.585Z,97052
2017-12-31T16:10:59.252Z,97047
2017-12-31T16:13:25.946Z,97046
2017-12-31T16:15:53.396Z,97044
2017-12-31T16:18:22.793Z,97042
2017-12-31T16:20:52.262Z,97041
2017-12-31T16:23:21.786Z,97033
2017-12-31T16:25:50.213Z,97031
2017-12-31T16:28:17.935Z,97031
2017-12-31T16:30:45.314Z,97033
2017-12-31T16:33:13.166Z,97030
2017-12-31T16:35:40.335Z,97033
2017-12-31T16:38:09.622Z,97023
2017-12-31T16:40:36.306Z,97024
2017-12-31T16:43:03.757Z,97017
2017-12-31T16:45:31.202Z,97015
2017-12-31T16:47:57.899Z,97003
2017-12-31T16:50:24.621Z,97000
2017-12-31T16:52:51.309Z,96998
2017-12-31T16:55:18.047Z,96998
2017-12-31T16:57:44.716Z,97004
2017-12-31T17:00:11.398Z,96999
2017-12-31T17:02:38.067Z,96991
2017-12-31T17:05:04.778Z,96994
2017-12-31T17:07:31.472Z,97000
2017-12-31T17:09:58.209Z,96998
2017-12-31T17:12:24.877Z,96992
2017-12-31T17:14:53.165Z,96990
2017-12-31T17:17:20.489Z,97001
2017-12-31T17:19:47.255Z,97003
2017-12-31T17:22:13.924Z,97001
2017-12-31T17:24:40.624Z,96998
2017-12-31T17:27:07.307Z,97003
2017-12-31T17:29:34.736Z,97000
2017-12-31T17:32:01.412Z,96994
2017-12-31T17:34:28.090Z,96992
2017-12-31T17:36:54.775Z,96992
2017-12-31T17:39:22.252Z,96993
2017-12-31T17:41:49.641Z,96992
2017-12-31T17:44:16.340Z,96998
2017-12-31T17:46:44.002Z,96994
2017-12-31T17:49:11.469Z,96994
2017-12-31T17:51:38.160Z,96992
2017-12-31T17:54:04.845Z,96996
2017-12-31T17:56:31.555Z,96996
2017-12-31T17:58:58.222Z,96991
2017-12-31T18:01:24.960Z,96994
2017-12-31T18:03:51.658Z,96992
2017-12-31T18:06:18.295Z,96990
2017-12-31T18:08:45.050Z,96991
2017-12-31T18:11:11.781Z,96986
2017-12-31T18:13:39.175Z,96984
2017-12-31T18:16:05.931Z,96984
2017-12-31T18:18:32.634Z,96981
2017-12-31T18:20:59.291Z,96981
2017-12-31T18:23:25.993Z,96983
2017-12-31T18:25:52.753Z,96982
2017-12-31T18:28:19.446Z,96975
2017-12-31T18:30:46.104Z,96980
2017-12-31T18:33:12.828Z,96977
2017-12-31T18:35:40.517Z,96978
2017-12-31T18:38:07.207Z,96980
2017-12-31T18:40:33.955Z,96980
2017-12-31T18:43:01.502Z,96978
2017-12-31T18:45:28.928Z,96971
2017-12-31T18:47:55.596Z,96974
2017-12-31T18:50:23.026Z,96969
2017-12-31T18:52:49.669Z,96970
2017-12-31T18:55:16.431Z,96967
2017-12-31T18:57:43.103Z,96971
2017-12-31T19:00:09.801Z,96966
2017-12-31T19:02:36.487Z,96957
2017-12-31T19:05:03.986Z,96958
2017-12-31T19:07:30.826Z,96952
2017-12-31T19:09:57.481Z,96947
2017-12-31T19:12:24.202Z,96950
2017-12-31T19:14:50.986Z,96942
2017-12-31T19:17:19.122Z,96944
2017-12-31T19:19:45.785Z,96937
2017-12-31T19:22:12.978Z,96940
2017-12-31T19:24:39.657Z,96940
2017-12-31T19:27:06.328Z,96940
2017-12-31T19:29:33.129Z,96941
2017-12-31T19:32:00.617Z,96937
2017-12-31T19:34:27.366Z,96941
2017-12-31T19:36:54.058Z,96940
2017-12-31T19:39:20.771Z,96938
2017-12-31T19:41:47.600Z,96937
2017-12-31T19:44:14.255Z,96929
2017-12-31T19:46:40.961Z,96933
2017-12-31T19:49:07.610Z,96936
2017-12-31T19:51:34.282Z,96934
2017-12-31T19:54:00.982Z,96925
2017-12-31T19:56:29.235Z,96929
2017-12-31T19:58:55.902Z,96924
2017-12-31T20:01:23.342Z,96921
2017-12-31T20:03:50.015Z,96922
2017-12-31T20:06:16.741Z,96921
2017-12-31T20:08:44.146Z,96927
2017-12-31T20:11:10.837Z,96924
2017-12-31T20:13:37.507Z,96919
2017-12-31T20:16:04.264Z,96923
2017-12-31T20:18:30.934Z,96919
2017-12-31T20:20:57.817Z,96921
2017-12-31T20:23:24.467Z,96911
2017-12-31T20:25:51.904Z,96901
2017-12-31T20:28:18.668Z,96902
2017-12-31T20:30:46.080Z,96891
2017-12-31T20:33:12.742Z,96889
2017-12-31T20:35:39.439Z,96883
2017-12-31T20:38:06.211Z,96879
2017-12-31T20:40:33.736Z,96881
2017-12-31T20:43:00.491Z,96875
2017-12-31T20:45:27.150Z,96874
2017-12-31T20:47:53.833Z,96874
2017-12-31T20:50:20.641Z,96869
2017-12-31T20:52:47.324Z,96871
2017-12-31T20:55:14.046Z,96878
2017-12-31T20:57:41.768Z,96870
2017-12-31T21:00:08.426Z,96868
2017-12-31T21:02:35.138Z,96873
2017-12-31T21:05:02.550Z,96864
2017-12-31T21:07:29.237Z,96865
2017-12-31T21:09:57.656Z,96864
2017-12-31T21:12:24.430Z,96861
2017-12-31T21:14:51.120Z,96856
2017-12-31T21:17:18.513Z,96852
2017-12-31T21:19:45.224Z,96854
2017-12-31T21:22:12.648Z,96848
2017-12-31T21:24:39.433Z,96849
2017-12-31T21:27:07.901Z,96840
2017-12-31T21:29:35.359Z,96845
2017-12-31T21:32:02.048Z,96842
2017-12-31T21:34:28.729Z,96852
2017-12-31T21:36:55.396Z,96850
2017-12-31T21:39:22.817Z,96854
2017-12-31T21:41:49.528Z,96844
2017-12-31T21:44:16.299Z,96836
2017-12-31T21:46:42.954Z,96839
2017-12-31T21:49:09.633Z,96830
2017-12-31T21:51:37.094Z,96827
2017-12-31T21:54:04.526Z,96821
2017-12-31T21:56:31.283Z,96820
2017-12-31T21:58:57.993Z,96816
2017-12-31T22:01:24.699Z,96814
2017-12-31T22:03:52.137Z,96811
2017-12-31T22:06:19.573Z,96803
2017-12-31T22:08:46.257Z,96801
2017-12-31T22:11:13.773Z,96808
2017-12-31T22:13:40.445Z,96798
2017-12-31T22:16:07.937Z,96796
2017-12-31T22:18:34.665Z,96793
2017-12-31T22:21:02.279Z,96789
2017-12-31T22:23:28.934Z,96781
2017-12-31T22:25:56.553Z,96784
2017-12-31T22:28:23.232Z,96777
2017-12-31T22:30:49.892Z,96772
2017-12-31T22:33:16.613Z,96765
2017-12-31T22:35:43.295Z,96775
2017-12-31T22:38:10.269Z,96776
2017-12-31T22:40:36.938Z,96770
2017-12-31T22:43:03.639Z,96775
2017-12-31T22:45:31.138Z,96779
2017-12-31T22:47:57.908Z,96774
2017-12-31T22:50:24.537Z,96765
2017-12-31T22:52:51.190Z,96767
2017-12-31T22:55:17.921Z,96766
2017-12-31T22:57:44.628Z,96769
2017-12-31T23:00:12.033Z,96765
2017-12-31T23:02:38.726Z,96769
2017-12-31T23:05:06.109Z,96768
2017-12-31T23:07:32.789Z,96774
2017-12-31T23:10:00.416Z,96765
2017-12-31T23:12:27.928Z,96756
2017-12-31T23:14:54.582Z,96751
2017-12-31T23:17:22.030Z,96748
2017-12-31T23:19:48.729Z,96747
2017-12-31T23:22:15.402Z,96743
2017-12-31T23:24:42.190Z,96736
2017-12-31T23:27:09.636Z,96729
2017-12-31T23:29:36.567Z,96724
2017-12-31T23:32:03.290Z,96719
2017-12-31T23:34:30.095Z,96710
2017-12-31T23:36:57.511Z,96710
2017-12-31T23:39:24.204Z,96706
2017-12-31T23:41:50.906Z,96707
2017-12-31T23:44:17.649Z,96696
2017-12-31T23:46:44.362Z,96702
2017-12-31T23:49:11.101Z,96696
2017-12-31T23:51:37.799Z,96695
2017-12-31T23:54:04.506Z,96699
2017-12-31T23:56:31.158Z,96690
2017-12-31T23:58:57.867Z,96692
